ADDS TAF Data INFO
IDs: Format: Raw Decoded Include METARs

Data at: 1519 UTC 19 Jan 2018

KFHU 191458Z AUTO 00000KT 9SM CLR 06/M09 A3014 RMK AO2 SLP188 T00621086 50001

TAF KFHU 191004Z 1910/2016 22005KT 9999 BKN200 QNH3012INS
  BECMG 1918/1919 23009KT 9999 FEW250 QNH2995INS
  BECMG 2014/2015 23012KT 9999 FEW100 BKN250 QNH2994INS TX22/1923Z TN03/1913Z